sensor_id;sensor_type;location;lat;lon;timestamp;P1;durP1;ratioP1;P2;durP2;ratioP2
58685;SDS011;44465;53.206;-6.106;2023-07-29T00:00:41;0.75;;;0.70;;
58685;SDS011;44465;53.206;-6.106;2023-07-29T00:03:07;1.58;;;1.05;;
58685;SDS011;44465;53.206;-6.106;2023-07-29T00:05:35;0.70;;;0.60;;
58685;SDS011;44465;53.206;-6.106;2023-07-29T00:08:02;1.70;;;0.82;;
58685;SDS011;44465;53.206;-6.106;2023-07-29T00:10:28;0.68;;;0.68;;
58685;SDS011;44465;53.206;-6.106;2023-07-29T00:12:54;0.80;;;0.80;;
58685;SDS011;44465;53.206;-6.106;2023-07-29T00:15:19;0.68;;;0.68;;
58685;SDS011;44465;53.206;-6.106;2023-07-29T00:17:45;6.72;;;1.38;;
58685;SDS011;44465;53.206;-6.106;2023-07-29T00:20:11;4.93;;;2.05;;
58685;SDS011;44465;53.206;-6.106;2023-07-29T00:22:36;4.05;;;1.02;;
58685;SDS011;44465;53.206;-6.106;2023-07-29T00:25:26;3.22;;;0.90;;
58685;SDS011;44465;53.206;-6.106;2023-07-29T00:28:03;0.73;;;0.70;;
58685;SDS011;44465;53.206;-6.106;2023-07-29T00:30:39;4.78;;;1.38;;
58685;SDS011;44465;53.206;-6.106;2023-07-29T00:33:36;3.22;;;0.95;;
58685;SDS011;44465;53.206;-6.106;2023-07-29T00:36:08;2.65;;;1.00;;
58685;SDS011;44465;53.206;-6.106;2023-07-29T00:38:38;4.65;;;0.98;;
58685;SDS011;44465;53.206;-6.106;2023-07-29T00:41:09;1.65;;;0.90;;
58685;SDS011;44465;53.206;-6.106;2023-07-29T00:46:18;2.53;;;0.80;;
58685;SDS011;44465;53.206;-6.106;2023-07-29T00:48:52;2.30;;;1.00;;
58685;SDS011;44465;53.206;-6.106;2023-07-29T00:51:25;1.67;;;0.93;;
58685;SDS011;44465;53.206;-6.106;2023-07-29T00:53:55;1.23;;;0.88;;
58685;SDS011;44465;53.206;-6.106;2023-07-29T00:56:29;3.28;;;1.08;;
58685;SDS011;44465;53.206;-6.106;2023-07-29T00:59:02;1.85;;;0.88;;
58685;SDS011;44465;53.206;-6.106;2023-07-29T01:01:32;2.25;;;0.90;;
58685;SDS011;44465;53.206;-6.106;2023-07-29T01:04:04;3.63;;;1.13;;
58685;SDS011;44465;53.206;-6.106;2023-07-29T01:06:34;4.68;;;1.50;;
58685;SDS011;44465;53.206;-6.106;2023-07-29T01:09:43;10.93;;;2.05;;
58685;SDS011;44465;53.206;-6.106;2023-07-29T01:12:27;15.90;;;1.88;;
58685;SDS011;44465;53.206;-6.106;2023-07-29T01:15:16;10.25;;;1.98;;
58685;SDS011;44465;53.206;-6.106;2023-07-29T01:17:49;9.52;;;1.90;;
58685;SDS011;44465;53.206;-6.106;2023-07-29T01:20:20;12.15;;;2.15;;
58685;SDS011;44465;53.206;-6.106;2023-07-29T01:22:46;13.57;;;1.92;;
58685;SDS011;44465;53.206;-6.106;2023-07-29T01:25:13;8.00;;;1.92;;
58685;SDS011;44465;53.206;-6.106;2023-07-29T01:27:40;12.40;;;2.00;;
58685;SDS011;44465;53.206;-6.106;2023-07-29T01:30:07;8.52;;;1.88;;
58685;SDS011;44465;53.206;-6.106;2023-07-29T01:35:24;13.30;;;2.45;;
58685;SDS011;44465;53.206;-6.106;2023-07-29T01:38:00;15.80;;;5.60;;
58685;SDS011;44465;53.206;-6.106;2023-07-29T01:40:33;14.80;;;5.13;;
58685;SDS011;44465;53.206;-6.106;2023-07-29T01:42:59;11.60;;;3.83;;
58685;SDS011;44465;53.206;-6.106;2023-07-29T01:45:25;17.10;;;6.28;;
58685;SDS011;44465;53.206;-6.106;2023-07-29T01:47:51;17.90;;;5.90;;
58685;SDS011;44465;53.206;-6.106;2023-07-29T01:50:20;13.85;;;5.50;;
58685;SDS011;44465;53.206;-6.106;2023-07-29T01:52:50;15.52;;;6.13;;
58685;SDS011;44465;53.206;-6.106;2023-07-29T01:55:16;12.90;;;5.55;;
58685;SDS011;44465;53.206;-6.106;2023-07-29T01:57:45;12.68;;;5.13;;
58685;SDS011;44465;53.206;-6.106;2023-07-29T02:00:13;10.13;;;5.00;;
58685;SDS011;44465;53.206;-6.106;2023-07-29T02:02:40;11.50;;;4.63;;
58685;SDS011;44465;53.206;-6.106;2023-07-29T02:05:11;7.55;;;4.05;;
58685;SDS011;44465;53.206;-6.106;2023-07-29T02:07:38;18.60;;;5.23;;
58685;SDS011;44465;53.206;-6.106;2023-07-29T02:10:08;6.82;;;3.63;;
58685;SDS011;44465;53.206;-6.106;2023-07-29T02:12:34;11.00;;;4.05;;
58685;SDS011;44465;53.206;-6.106;2023-07-29T02:15:00;12.32;;;4.75;;
58685;SDS011;44465;53.206;-6.106;2023-07-29T02:17:26;16.92;;;5.22;;
58685;SDS011;44465;53.206;-6.106;2023-07-29T02:19:52;14.77;;;4.32;;
58685;SDS011;44465;53.206;-6.106;2023-07-29T02:22:18;16.30;;;4.78;;
58685;SDS011;44465;53.206;-6.106;2023-07-29T02:24:44;14.27;;;4.00;;
58685;SDS011;44465;53.206;-6.106;2023-07-29T02:27:10;23.73;;;3.95;;
58685;SDS011;44465;53.206;-6.106;2023-07-29T02:29:37;18.65;;;4.00;;
58685;SDS011;44465;53.206;-6.106;2023-07-29T02:32:03;17.60;;;4.22;;
58685;SDS011;44465;53.206;-6.106;2023-07-29T02:34:29;20.90;;;4.15;;
58685;SDS011;44465;53.206;-6.106;2023-07-29T02:36:55;18.08;;;3.78;;
58685;SDS011;44465;53.206;-6.106;2023-07-29T02:39:21;11.32;;;3.13;;
58685;SDS011;44465;53.206;-6.106;2023-07-29T02:41:48;15.00;;;3.15;;
58685;SDS011;44465;53.206;-6.106;2023-07-29T02:44:15;16.38;;;3.55;;
58685;SDS011;44465;53.206;-6.106;2023-07-29T02:46:41;10.95;;;3.03;;
58685;SDS011;44465;53.206;-6.106;2023-07-29T02:49:08;15.73;;;3.00;;
58685;SDS011;44465;53.206;-6.106;2023-07-29T02:51:34;13.75;;;2.97;;
58685;SDS011;44465;53.206;-6.106;2023-07-29T02:54:01;14.48;;;3.50;;
58685;SDS011;44465;53.206;-6.106;2023-07-29T02:56:26;11.93;;;3.05;;
58685;SDS011;44465;53.206;-6.106;2023-07-29T02:58:53;13.80;;;3.75;;
58685;SDS011;44465;53.206;-6.106;2023-07-29T03:01:19;12.73;;;2.88;;
58685;SDS011;44465;53.206;-6.106;2023-07-29T03:03:46;7.88;;;2.67;;
58685;SDS011;44465;53.206;-6.106;2023-07-29T03:06:13;9.35;;;3.45;;
58685;SDS011;44465;53.206;-6.106;2023-07-29T03:08:40;12.25;;;3.65;;
58685;SDS011;44465;53.206;-6.106;2023-07-29T03:11:06;9.57;;;3.78;;
58685;SDS011;44465;53.206;-6.106;2023-07-29T03:13:34;13.70;;;3.42;;
58685;SDS011;44465;53.206;-6.106;2023-07-29T03:16:09;8.75;;;4.68;;
58685;SDS011;44465;53.206;-6.106;2023-07-29T03:18:38;9.82;;;4.70;;
58685;SDS011;44465;53.206;-6.106;2023-07-29T03:21:04;11.82;;;5.65;;
58685;SDS011;44465;53.206;-6.106;2023-07-29T03:23:30;9.85;;;5.43;;
58685;SDS011;44465;53.206;-6.106;2023-07-29T03:26:00;11.40;;;6.20;;
58685;SDS011;44465;53.206;-6.106;2023-07-29T03:28:30;12.57;;;5.88;;
58685;SDS011;44465;53.206;-6.106;2023-07-29T03:30:58;11.10;;;6.18;;
58685;SDS011;44465;53.206;-6.106;2023-07-29T03:33:25;11.25;;;5.60;;
58685;SDS011;44465;53.206;-6.106;2023-07-29T03:35:51;24.60;;;6.22;;
58685;SDS011;44465;53.206;-6.106;2023-07-29T03:38:18;20.50;;;6.15;;
58685;SDS011;44465;53.206;-6.106;2023-07-29T03:40:44;21.65;;;5.88;;
58685;SDS011;44465;53.206;-6.106;2023-07-29T03:43:09;14.57;;;5.38;;
58685;SDS011;44465;53.206;-6.106;2023-07-29T03:45:36;15.38;;;5.03;;
58685;SDS011;44465;53.206;-6.106;2023-07-29T03:48:02;14.10;;;4.80;;
58685;SDS011;44465;53.206;-6.106;2023-07-29T03:50:28;13.30;;;4.82;;
58685;SDS011;44465;53.206;-6.106;2023-07-29T03:52:55;12.30;;;5.00;;
58685;SDS011;44465;53.206;-6.106;2023-07-29T03:55:21;11.77;;;4.55;;
58685;SDS011;44465;53.206;-6.106;2023-07-29T03:57:48;13.55;;;5.15;;
58685;SDS011;44465;53.206;-6.106;2023-07-29T04:00:14;11.50;;;4.25;;
58685;SDS011;44465;53.206;-6.106;2023-07-29T04:02:41;14.50;;;4.97;;
58685;SDS011;44465;53.206;-6.106;2023-07-29T04:05:08;12.38;;;4.60;;
58685;SDS011;44465;53.206;-6.106;2023-07-29T04:07:34;8.85;;;4.30;;
58685;SDS011;44465;53.206;-6.106;2023-07-29T04:10:01;11.40;;;4.17;;
58685;SDS011;44465;53.206;-6.106;2023-07-29T04:12:27;12.63;;;3.95;;
58685;SDS011;44465;53.206;-6.106;2023-07-29T04:14:53;11.30;;;4.35;;
58685;SDS011;44465;53.206;-6.106;2023-07-29T04:17:21;8.40;;;4.18;;
58685;SDS011;44465;53.206;-6.106;2023-07-29T04:19:46;10.50;;;3.83;;
58685;SDS011;44465;53.206;-6.106;2023-07-29T04:22:12;10.27;;;4.38;;
58685;SDS011;44465;53.206;-6.106;2023-07-29T04:24:37;12.32;;;3.90;;
58685;SDS011;44465;53.206;-6.106;2023-07-29T04:27:04;8.45;;;3.92;;
58685;SDS011;44465;53.206;-6.106;2023-07-29T04:29:31;8.20;;;3.60;;
58685;SDS011;44465;53.206;-6.106;2023-07-29T04:31:56;7.05;;;3.88;;
58685;SDS011;44465;53.206;-6.106;2023-07-29T04:34:22;7.97;;;3.75;;
58685;SDS011;44465;53.206;-6.106;2023-07-29T04:36:49;5.10;;;3.38;;
58685;SDS011;44465;53.206;-6.106;2023-07-29T04:39:32;5.05;;;3.05;;
58685;SDS011;44465;53.206;-6.106;2023-07-29T04:41:58;10.05;;;3.38;;
58685;SDS011;44465;53.206;-6.106;2023-07-29T04:44:24;9.38;;;3.58;;
58685;SDS011;44465;53.206;-6.106;2023-07-29T04:46:50;5.97;;;3.65;;
58685;SDS011;44465;53.206;-6.106;2023-07-29T04:49:16;10.32;;;3.35;;
58685;SDS011;44465;53.206;-6.106;2023-07-29T04:51:43;5.03;;;2.63;;
58685;SDS011;44465;53.206;-6.106;2023-07-29T04:54:08;7.38;;;3.10;;
58685;SDS011;44465;53.206;-6.106;2023-07-29T04:56:34;11.27;;;3.50;;
58685;SDS011;44465;53.206;-6.106;2023-07-29T04:58:59;7.32;;;3.05;;
58685;SDS011;44465;53.206;-6.106;2023-07-29T05:01:26;8.18;;;3.58;;
58685;SDS011;44465;53.206;-6.106;2023-07-29T05:03:52;5.43;;;2.55;;
58685;SDS011;44465;53.206;-6.106;2023-07-29T05:06:18;4.88;;;2.90;;
58685;SDS011;44465;53.206;-6.106;2023-07-29T05:08:43;7.25;;;3.30;;
58685;SDS011;44465;53.206;-6.106;2023-07-29T05:11:09;4.97;;;3.30;;
58685;SDS011;44465;53.206;-6.106;2023-07-29T05:13:36;5.05;;;2.78;;
58685;SDS011;44465;53.206;-6.106;2023-07-29T05:16:02;9.27;;;2.83;;
58685;SDS011;44465;53.206;-6.106;2023-07-29T05:18:29;8.00;;;3.55;;
58685;SDS011;44465;53.206;-6.106;2023-07-29T05:20:55;6.22;;;2.90;;
58685;SDS011;44465;53.206;-6.106;2023-07-29T05:23:21;6.00;;;2.70;;
58685;SDS011;44465;53.206;-6.106;2023-07-29T05:25:47;5.47;;;2.42;;
58685;SDS011;44465;53.206;-6.106;2023-07-29T05:28:12;7.55;;;2.72;;
58685;SDS011;44465;53.206;-6.106;2023-07-29T05:30:39;4.72;;;2.60;;
58685;SDS011;44465;53.206;-6.106;2023-07-29T05:33:06;5.43;;;2.50;;
58685;SDS011;44465;53.206;-6.106;2023-07-29T05:35:33;8.20;;;3.00;;
58685;SDS011;44465;53.206;-6.106;2023-07-29T05:38:02;6.60;;;2.63;;
58685;SDS011;44465;53.206;-6.106;2023-07-29T05:40:34;6.03;;;2.42;;
58685;SDS011;44465;53.206;-6.106;2023-07-29T05:43:00;3.47;;;2.30;;
58685;SDS011;44465;53.206;-6.106;2023-07-29T05:45:25;5.63;;;2.83;;
58685;SDS011;44465;53.206;-6.106;2023-07-29T05:47:55;5.30;;;2.35;;
58685;SDS011;44465;53.206;-6.106;2023-07-29T05:50:21;3.80;;;2.45;;
58685;SDS011;44465;53.206;-6.106;2023-07-29T05:52:47;5.75;;;2.83;;
58685;SDS011;44465;53.206;-6.106;2023-07-29T05:55:13;5.28;;;2.17;;
58685;SDS011;44465;53.206;-6.106;2023-07-29T05:57:39;4.35;;;2.20;;
58685;SDS011;44465;53.206;-6.106;2023-07-29T06:02:38;4.32;;;2.38;;
58685;SDS011;44465;53.206;-6.106;2023-07-29T06:05:05;3.00;;;2.20;;
58685;SDS011;44465;53.206;-6.106;2023-07-29T06:07:31;4.25;;;2.00;;
58685;SDS011;44465;53.206;-6.106;2023-07-29T06:09:59;3.50;;;2.05;;
58685;SDS011;44465;53.206;-6.106;2023-07-29T06:12:25;4.18;;;2.10;;
58685;SDS011;44465;53.206;-6.106;2023-07-29T06:14:51;3.97;;;2.35;;
58685;SDS011;44465;53.206;-6.106;2023-07-29T06:17:16;4.25;;;1.92;;
58685;SDS011;44465;53.206;-6.106;2023-07-29T06:19:42;4.78;;;1.90;;
58685;SDS011;44465;53.206;-6.106;2023-07-29T06:22:09;3.40;;;2.00;;
58685;SDS011;44465;53.206;-6.106;2023-07-29T06:24:35;5.47;;;2.50;;
58685;SDS011;44465;53.206;-6.106;2023-07-29T06:27:00;4.28;;;2.03;;
58685;SDS011;44465;53.206;-6.106;2023-07-29T06:29:28;4.28;;;2.17;;
58685;SDS011;44465;53.206;-6.106;2023-07-29T06:31:53;2.97;;;1.80;;
58685;SDS011;44465;53.206;-6.106;2023-07-29T06:34:20;4.72;;;1.95;;
58685;SDS011;44465;53.206;-6.106;2023-07-29T06:36:46;4.03;;;2.22;;
58685;SDS011;44465;53.206;-6.106;2023-07-29T06:39:11;4.05;;;1.98;;
58685;SDS011;44465;53.206;-6.106;2023-07-29T06:41:37;2.90;;;1.90;;
58685;SDS011;44465;53.206;-6.106;2023-07-29T06:44:03;3.42;;;1.83;;
58685;SDS011;44465;53.206;-6.106;2023-07-29T06:46:29;2.53;;;1.73;;
58685;SDS011;44465;53.206;-6.106;2023-07-29T06:48:54;5.40;;;1.98;;
58685;SDS011;44465;53.206;-6.106;2023-07-29T06:51:20;3.70;;;1.95;;
58685;SDS011;44465;53.206;-6.106;2023-07-29T06:53:45;3.30;;;1.98;;
58685;SDS011;44465;53.206;-6.106;2023-07-29T06:56:11;5.13;;;1.77;;
58685;SDS011;44465;53.206;-6.106;2023-07-29T06:58:36;1.52;;;1.40;;
58685;SDS011;44465;53.206;-6.106;2023-07-29T07:01:02;2.78;;;1.90;;
58685;SDS011;44465;53.206;-6.106;2023-07-29T07:03:28;3.40;;;1.75;;
58685;SDS011;44465;53.206;-6.106;2023-07-29T07:05:54;3.10;;;1.30;;
58685;SDS011;44465;53.206;-6.106;2023-07-29T07:08:19;3.88;;;1.75;;
58685;SDS011;44465;53.206;-6.106;2023-07-29T07:10:46;3.00;;;1.63;;
58685;SDS011;44465;53.206;-6.106;2023-07-29T07:13:12;5.15;;;1.65;;
58685;SDS011;44465;53.206;-6.106;2023-07-29T07:15:41;3.55;;;1.88;;
58685;SDS011;44465;53.206;-6.106;2023-07-29T07:18:08;2.35;;;1.65;;
58685;SDS011;44465;53.206;-6.106;2023-07-29T07:20:34;3.85;;;1.98;;
58685;SDS011;44465;53.206;-6.106;2023-07-29T07:23:00;3.58;;;1.60;;
58685;SDS011;44465;53.206;-6.106;2023-07-29T07:25:25;1.60;;;1.40;;
58685;SDS011;44465;53.206;-6.106;2023-07-29T07:27:51;3.08;;;1.40;;
58685;SDS011;44465;53.206;-6.106;2023-07-29T07:30:17;5.28;;;1.98;;
58685;SDS011;44465;53.206;-6.106;2023-07-29T07:32:42;4.57;;;1.67;;
58685;SDS011;44465;53.206;-6.106;2023-07-29T07:35:08;2.22;;;1.27;;
58685;SDS011;44465;53.206;-6.106;2023-07-29T07:37:34;3.58;;;1.63;;
58685;SDS011;44465;53.206;-6.106;2023-07-29T07:40:00;3.10;;;1.23;;
58685;SDS011;44465;53.206;-6.106;2023-07-29T07:42:25;2.30;;;1.40;;
58685;SDS011;44465;53.206;-6.106;2023-07-29T07:44:51;2.38;;;1.38;;
58685;SDS011;44465;53.206;-6.106;2023-07-29T07:47:16;3.65;;;1.50;;
58685;SDS011;44465;53.206;-6.106;2023-07-29T07:49:42;2.15;;;1.45;;
58685;SDS011;44465;53.206;-6.106;2023-07-29T07:52:09;4.35;;;1.67;;
58685;SDS011;44465;53.206;-6.106;2023-07-29T07:54:34;2.13;;;1.52;;
58685;SDS011;44465;53.206;-6.106;2023-07-29T07:57:01;3.30;;;1.42;;
58685;SDS011;44465;53.206;-6.106;2023-07-29T07:59:27;1.30;;;1.08;;
58685;SDS011;44465;53.206;-6.106;2023-07-29T08:01:55;3.10;;;1.40;;
58685;SDS011;44465;53.206;-6.106;2023-07-29T08:04:21;4.43;;;1.60;;
58685;SDS011;44465;53.206;-6.106;2023-07-29T08:06:48;2.60;;;1.27;;
58685;SDS011;44465;53.206;-6.106;2023-07-29T08:09:13;2.35;;;1.45;;
58685;SDS011;44465;53.206;-6.106;2023-07-29T08:11:40;3.75;;;1.55;;
58685;SDS011;44465;53.206;-6.106;2023-07-29T08:14:05;3.35;;;1.35;;
58685;SDS011;44465;53.206;-6.106;2023-07-29T08:16:31;3.25;;;1.33;;
58685;SDS011;44465;53.206;-6.106;2023-07-29T08:18:56;2.10;;;1.10;;
58685;SDS011;44465;53.206;-6.106;2023-07-29T08:21:24;2.83;;;1.38;;
58685;SDS011;44465;53.206;-6.106;2023-07-29T08:23:49;2.13;;;1.30;;
58685;SDS011;44465;53.206;-6.106;2023-07-29T08:26:15;2.40;;;1.17;;
58685;SDS011;44465;53.206;-6.106;2023-07-29T08:28:42;2.28;;;1.30;;
58685;SDS011;44465;53.206;-6.106;2023-07-29T08:31:07;2.10;;;1.30;;
58685;SDS011;44465;53.206;-6.106;2023-07-29T08:33:36;1.77;;;1.27;;
58685;SDS011;44465;53.206;-6.106;2023-07-29T08:36:02;1.58;;;1.00;;
58685;SDS011;44465;53.206;-6.106;2023-07-29T08:38:28;2.03;;;1.35;;
58685;SDS011;44465;53.206;-6.106;2023-07-29T08:40:57;2.60;;;1.75;;
58685;SDS011;44465;53.206;-6.106;2023-07-29T08:43:31;3.15;;;1.42;;
58685;SDS011;44465;53.206;-6.106;2023-07-29T08:45:58;2.40;;;1.02;;
58685;SDS011;44465;53.206;-6.106;2023-07-29T08:50:56;2.30;;;1.20;;
58685;SDS011;44465;53.206;-6.106;2023-07-29T08:53:24;1.90;;;1.27;;
58685;SDS011;44465;53.206;-6.106;2023-07-29T08:55:53;3.15;;;1.13;;
58685;SDS011;44465;53.206;-6.106;2023-07-29T08:58:21;4.70;;;1.67;;
58685;SDS011;44465;53.206;-6.106;2023-07-29T09:00:47;2.95;;;1.35;;
58685;SDS011;44465;53.206;-6.106;2023-07-29T09:03:14;1.40;;;1.00;;
58685;SDS011;44465;53.206;-6.106;2023-07-29T09:05:40;2.28;;;1.10;;
58685;SDS011;44465;53.206;-6.106;2023-07-29T09:08:05;1.73;;;1.17;;
58685;SDS011;44465;53.206;-6.106;2023-07-29T09:10:35;2.67;;;1.40;;
58685;SDS011;44465;53.206;-6.106;2023-07-29T09:13:02;3.83;;;1.20;;
58685;SDS011;44465;53.206;-6.106;2023-07-29T09:15:29;2.58;;;1.08;;
58685;SDS011;44465;53.206;-6.106;2023-07-29T09:17:56;1.67;;;0.82;;
58685;SDS011;44465;53.206;-6.106;2023-07-29T09:20:26;3.28;;;1.38;;
58685;SDS011;44465;53.206;-6.106;2023-07-29T09:22:55;2.58;;;1.10;;
58685;SDS011;44465;53.206;-6.106;2023-07-29T09:25:28;2.03;;;0.90;;
58685;SDS011;44465;53.206;-6.106;2023-07-29T09:28:01;1.52;;;0.90;;
58685;SDS011;44465;53.206;-6.106;2023-07-29T09:30:32;1.00;;;0.70;;
58685;SDS011;44465;53.206;-6.106;2023-07-29T09:32:58;1.20;;;1.10;;
58685;SDS011;44465;53.206;-6.106;2023-07-29T09:35:27;0.82;;;0.57;;
58685;SDS011;44465;53.206;-6.106;2023-07-29T09:37:53;0.93;;;0.80;;
58685;SDS011;44465;53.206;-6.106;2023-07-29T09:40:20;3.38;;;1.00;;
58685;SDS011;44465;53.206;-6.106;2023-07-29T09:42:53;2.03;;;1.17;;
58685;SDS011;44465;53.206;-6.106;2023-07-29T09:45:20;1.50;;;1.13;;
58685;SDS011;44465;53.206;-6.106;2023-07-29T09:47:46;2.33;;;1.45;;
58685;SDS011;44465;53.206;-6.106;2023-07-29T09:50:12;1.27;;;0.85;;
58685;SDS011;44465;53.206;-6.106;2023-07-29T09:52:38;2.20;;;1.00;;
58685;SDS011;44465;53.206;-6.106;2023-07-29T09:55:03;0.90;;;0.70;;
58685;SDS011;44465;53.206;-6.106;2023-07-29T09:57:29;0.90;;;0.73;;
58685;SDS011;44465;53.206;-6.106;2023-07-29T09:59:56;1.88;;;0.85;;
58685;SDS011;44465;53.206;-6.106;2023-07-29T10:02:22;1.75;;;0.88;;
58685;SDS011;44465;53.206;-6.106;2023-07-29T10:04:50;1.02;;;0.70;;
58685;SDS011;44465;53.206;-6.106;2023-07-29T10:07:18;1.63;;;0.90;;
58685;SDS011;44465;53.206;-6.106;2023-07-29T10:09:45;1.27;;;0.90;;
58685;SDS011;44465;53.206;-6.106;2023-07-29T10:12:11;2.22;;;1.20;;
58685;SDS011;44465;53.206;-6.106;2023-07-29T10:14:38;1.63;;;0.82;;
58685;SDS011;44465;53.206;-6.106;2023-07-29T10:17:05;1.25;;;0.80;;
58685;SDS011;44465;53.206;-6.106;2023-07-29T10:19:31;1.08;;;0.70;;
58685;SDS011;44465;53.206;-6.106;2023-07-29T10:21:58;3.25;;;0.80;;
58685;SDS011;44465;53.206;-6.106;2023-07-29T10:24:29;1.73;;;0.70;;
58685;SDS011;44465;53.206;-6.106;2023-07-29T10:27:03;2.40;;;1.25;;
58685;SDS011;44465;53.206;-6.106;2023-07-29T10:29:32;1.27;;;1.02;;
58685;SDS011;44465;53.206;-6.106;2023-07-29T10:32:04;1.45;;;0.90;;
58685;SDS011;44465;53.206;-6.106;2023-07-29T10:34:32;1.48;;;0.82;;
58685;SDS011;44465;53.206;-6.106;2023-07-29T10:37:02;1.15;;;0.57;;
58685;SDS011;44465;53.206;-6.106;2023-07-29T10:39:27;1.58;;;0.82;;
58685;SDS011;44465;53.206;-6.106;2023-07-29T10:42:05;1.58;;;1.00;;
58685;SDS011;44465;53.206;-6.106;2023-07-29T10:47:12;1.88;;;0.88;;
58685;SDS011;44465;53.206;-6.106;2023-07-29T10:49:41;1.25;;;0.60;;
58685;SDS011;44465;53.206;-6.106;2023-07-29T10:52:13;1.35;;;0.70;;
58685;SDS011;44465;53.206;-6.106;2023-07-29T10:54:43;1.17;;;0.70;;
58685;SDS011;44465;53.206;-6.106;2023-07-29T10:57:12;1.15;;;0.82;;
58685;SDS011;44465;53.206;-6.106;2023-07-29T10:59:39;0.93;;;0.70;;
58685;SDS011;44465;53.206;-6.106;2023-07-29T11:02:12;2.80;;;1.08;;
58685;SDS011;44465;53.206;-6.106;2023-07-29T11:04:51;1.67;;;0.90;;
58685;SDS011;44465;53.206;-6.106;2023-07-29T11:20:18;1.83;;;0.90;;
58685;SDS011;44465;53.206;-6.106;2023-07-29T11:22:45;3.17;;;1.27;;
58685;SDS011;44465;53.206;-6.106;2023-07-29T11:25:12;1.00;;;0.80;;
58685;SDS011;44465;53.206;-6.106;2023-07-29T11:27:39;1.42;;;0.75;;
58685;SDS011;44465;53.206;-6.106;2023-07-29T11:30:08;1.02;;;0.90;;
58685;SDS011;44465;53.206;-6.106;2023-07-29T11:32:38;2.42;;;1.17;;
58685;SDS011;44465;53.206;-6.106;2023-07-29T11:35:08;0.80;;;0.60;;
58685;SDS011;44465;53.206;-6.106;2023-07-29T11:37:44;1.45;;;0.65;;
58685;SDS011;44465;53.206;-6.106;2023-07-29T11:40:15;1.65;;;0.70;;
58685;SDS011;44465;53.206;-6.106;2023-07-29T11:42:43;0.85;;;0.73;;
58685;SDS011;44465;53.206;-6.106;2023-07-29T11:45:09;2.20;;;0.75;;
58685;SDS011;44465;53.206;-6.106;2023-07-29T11:47:36;2.22;;;0.82;;
58685;SDS011;44465;53.206;-6.106;2023-07-29T11:50:07;1.23;;;0.60;;
58685;SDS011;44465;53.206;-6.106;2023-07-29T11:52:43;1.15;;;0.70;;
58685;SDS011;44465;53.206;-6.106;2023-07-29T11:55:11;0.82;;;0.63;;
58685;SDS011;44465;53.206;-6.106;2023-07-29T11:57:38;1.63;;;0.90;;
58685;SDS011;44465;53.206;-6.106;2023-07-29T12:00:05;0.75;;;0.73;;
58685;SDS011;44465;53.206;-6.106;2023-07-29T12:02:35;1.48;;;0.73;;
58685;SDS011;44465;53.206;-6.106;2023-07-29T12:05:03;0.60;;;0.50;;
58685;SDS011;44465;53.206;-6.106;2023-07-29T12:07:34;1.05;;;0.77;;
58685;SDS011;44465;53.206;-6.106;2023-07-29T12:12:56;1.00;;;0.70;;
58685;SDS011;44465;53.206;-6.106;2023-07-29T12:15:25;0.47;;;0.47;;
58685;SDS011;44465;53.206;-6.106;2023-07-29T12:17:52;1.17;;;0.82;;
58685;SDS011;44465;53.206;-6.106;2023-07-29T12:20:23;0.75;;;0.75;;
58685;SDS011;44465;53.206;-6.106;2023-07-29T12:22:53;2.38;;;0.93;;
58685;SDS011;44465;53.206;-6.106;2023-07-29T12:25:22;1.40;;;0.60;;
58685;SDS011;44465;53.206;-6.106;2023-07-29T12:27:50;1.27;;;0.47;;
58685;SDS011;44465;53.206;-6.106;2023-07-29T12:30:19;0.47;;;0.40;;
58685;SDS011;44465;53.206;-6.106;2023-07-29T12:32:46;1.23;;;0.77;;
58685;SDS011;44465;53.206;-6.106;2023-07-29T12:37:40;0.40;;;0.40;;
58685;SDS011;44465;53.206;-6.106;2023-07-29T12:40:20;2.85;;;0.82;;
58685;SDS011;44465;53.206;-6.106;2023-07-29T12:42:47;1.08;;;0.75;;
58685;SDS011;44465;53.206;-6.106;2023-07-29T12:45:16;1.33;;;0.65;;
58685;SDS011;44465;53.206;-6.106;2023-07-29T12:47:42;1.27;;;0.80;;
58685;SDS011;44465;53.206;-6.106;2023-07-29T12:50:08;1.70;;;0.70;;
58685;SDS011;44465;53.206;-6.106;2023-07-29T12:52:34;2.15;;;1.17;;
58685;SDS011;44465;53.206;-6.106;2023-07-29T12:55:00;1.15;;;0.60;;
58685;SDS011;44465;53.206;-6.106;2023-07-29T12:57:25;0.70;;;0.65;;
58685;SDS011;44465;53.206;-6.106;2023-07-29T12:59:52;0.70;;;0.70;;
58685;SDS011;44465;53.206;-6.106;2023-07-29T13:02:18;1.92;;;0.80;;
58685;SDS011;44465;53.206;-6.106;2023-07-29T13:04:45;0.95;;;0.77;;
58685;SDS011;44465;53.206;-6.106;2023-07-29T13:07:11;1.25;;;0.73;;
58685;SDS011;44465;53.206;-6.106;2023-07-29T13:09:36;1.65;;;0.68;;
58685;SDS011;44465;53.206;-6.106;2023-07-29T13:12:02;1.30;;;0.63;;
58685;SDS011;44465;53.206;-6.106;2023-07-29T13:14:28;1.05;;;0.60;;
58685;SDS011;44465;53.206;-6.106;2023-07-29T13:16:53;1.00;;;0.82;;
58685;SDS011;44465;53.206;-6.106;2023-07-29T13:19:19;1.80;;;0.77;;
58685;SDS011;44465;53.206;-6.106;2023-07-29T13:21:46;0.60;;;0.45;;
58685;SDS011;44465;53.206;-6.106;2023-07-29T13:24:11;2.38;;;0.60;;
58685;SDS011;44465;53.206;-6.106;2023-07-29T13:26:37;1.02;;;0.65;;
58685;SDS011;44465;53.206;-6.106;2023-07-29T13:29:04;2.00;;;0.80;;
58685;SDS011;44465;53.206;-6.106;2023-07-29T13:31:29;2.00;;;0.80;;
58685;SDS011;44465;53.206;-6.106;2023-07-29T13:33:56;1.63;;;0.90;;
58685;SDS011;44465;53.206;-6.106;2023-07-29T13:36:21;0.95;;;0.73;;
58685;SDS011;44465;53.206;-6.106;2023-07-29T13:38:47;1.85;;;0.85;;
58685;SDS011;44465;53.206;-6.106;2023-07-29T13:41:13;1.08;;;0.70;;
58685;SDS011;44465;53.206;-6.106;2023-07-29T13:43:39;1.67;;;0.88;;
58685;SDS011;44465;53.206;-6.106;2023-07-29T13:46:04;1.67;;;0.93;;
58685;SDS011;44465;53.206;-6.106;2023-07-29T13:48:30;0.65;;;0.65;;
58685;SDS011;44465;53.206;-6.106;2023-07-29T13:50:55;0.70;;;0.60;;
58685;SDS011;44465;53.206;-6.106;2023-07-29T13:53:21;0.85;;;0.55;;
58685;SDS011;44465;53.206;-6.106;2023-07-29T13:55:46;2.08;;;0.90;;
58685;SDS011;44465;53.206;-6.106;2023-07-29T13:58:13;1.98;;;0.80;;
58685;SDS011;44465;53.206;-6.106;2023-07-29T14:00:38;1.55;;;0.88;;
58685;SDS011;44465;53.206;-6.106;2023-07-29T14:03:04;3.20;;;1.45;;
58685;SDS011;44465;53.206;-6.106;2023-07-29T14:05:29;1.13;;;0.90;;
58685;SDS011;44465;53.206;-6.106;2023-07-29T14:07:55;5.90;;;1.08;;
58685;SDS011;44465;53.206;-6.106;2023-07-29T14:10:20;0.63;;;0.63;;
58685;SDS011;44465;53.206;-6.106;2023-07-29T14:12:46;1.80;;;0.70;;
58685;SDS011;44465;53.206;-6.106;2023-07-29T14:15:11;4.25;;;1.30;;
58685;SDS011;44465;53.206;-6.106;2023-07-29T14:17:37;2.70;;;0.88;;
58685;SDS011;44465;53.206;-6.106;2023-07-29T14:20:03;8.70;;;1.45;;
58685;SDS011;44465;53.206;-6.106;2023-07-29T14:22:30;13.02;;;2.15;;
58685;SDS011;44465;53.206;-6.106;2023-07-29T14:24:57;9.57;;;1.30;;
58685;SDS011;44465;53.206;-6.106;2023-07-29T14:27:24;4.18;;;1.10;;
58685;SDS011;44465;53.206;-6.106;2023-07-29T14:29:50;9.95;;;1.65;;
58685;SDS011;44465;53.206;-6.106;2023-07-29T14:32:16;6.78;;;1.52;;
58685;SDS011;44465;53.206;-6.106;2023-07-29T14:34:42;16.77;;;2.75;;
58685;SDS011;44465;53.206;-6.106;2023-07-29T14:37:08;9.57;;;2.00;;
58685;SDS011;44465;53.206;-6.106;2023-07-29T14:39:33;9.70;;;1.63;;
58685;SDS011;44465;53.206;-6.106;2023-07-29T14:41:59;11.98;;;2.72;;
58685;SDS011;44465;53.206;-6.106;2023-07-29T14:44:25;5.97;;;1.70;;
58685;SDS011;44465;53.206;-6.106;2023-07-29T14:46:51;18.75;;;2.35;;
58685;SDS011;44465;53.206;-6.106;2023-07-29T14:49:17;12.13;;;2.25;;
58685;SDS011;44465;53.206;-6.106;2023-07-29T14:51:42;6.70;;;1.92;;
58685;SDS011;44465;53.206;-6.106;2023-07-29T14:54:08;11.50;;;2.45;;
58685;SDS011;44465;53.206;-6.106;2023-07-29T14:56:33;7.40;;;1.67;;
58685;SDS011;44465;53.206;-6.106;2023-07-29T14:58:59;8.52;;;1.98;;
58685;SDS011;44465;53.206;-6.106;2023-07-29T15:01:25;13.90;;;2.53;;
58685;SDS011;44465;53.206;-6.106;2023-07-29T15:03:50;25.60;;;3.03;;